Terminal Aerodrome Forecast
Issued by NWS Denver/Boulder, CO

Home | Current Version | Previous Version | Text Only | Print | Product List | Glossary On
Versions: 1 2 3 4 5 6 7 8 9 10 11 12 13 14 15 16 17 18 19 20 21 22 23 24 25 26 27 28 29 30 31 32 33 34 35 36 37 38 39 40 41 42 43 44 45 46 47 48 49 50
000
FTUS45 KBOU 310537
TAFDEN
TAF
KDEN 310537Z 3106/0112 33007KT P6SM SCT070 BKN090 OVC200
     FM310800 35007KT P6SM VCSH SCT050 BKN070 OVC090
      TEMPO 3108/3111 -SHSN BKN035 OVC050
     FM311200 29006KT P6SM VCSH SCT045 BKN060 BKN100
      TEMPO 3112/3116 BKN040
     FM311600 31006KT P6SM SCT050 BKN070
     FM312000 35010KT P6SM BKN045 BKN060
     FM312200 03008KT P6SM VCSH SCT030 BKN040 OVC060
      TEMPO 3123/0103 4SM -SHRASN OVC030=

USA.gov is the U.S. government's official web portal to all federal, state and local government web resources and services.